KAUS/AUS METAR and TAF weather

Enter ICAO airport designator
Station Type Date Time Source
KAUS METAR 2019/10/21 23:53 UTC NOAA

KAUS 212353Z 03008KT 10SM FEW250 23/02 A2992 RMK AO2 SLP123 T02280022 10272 20228 53009


Station Type Date Time Source
KAUS Decoded METAR 2019/10/21 23:53 UTC NOAA

AUSTIN-BERGSTROM INTERNATIONAL AIRPORT, TX, United States (KAUS) 30-11N 097-41W 172M
Oct 21, 2019 - 07:53 PM EDT / 2019.10.21 2353 UTC
Wind: from the NNE (030 degrees) at 9 MPH (8 KT):0
Visibility: 10 mile(s):0
Sky conditions: mostly clear
Temperature: 73.0 F (22.8 C)
Dew Point: 36.0 F (2.2 C)
Relative Humidity: 25%
Pressure (altimeter): 29.92 in. Hg (1013 hPa)
Pressure tendency: 0.03 inches (0.9 hPa) higher than three hours ago
ob: KAUS 212353Z 03008KT 10SM FEW250 23/02 A2992 RMK AO2 SLP123 T02280022 10272 20228 53009
cycle: 0

Station Type Date Time Source
KAUS TAF 2019/10/21 22:10 UTC NOAA

TAF
AMD KAUS 212208Z 2122/2224 01005KT P6SM FEW250
FM221800 10007KT P6SM SKC

Example: see airport list